createdAt,value
2023-03-31T00:01:24.470Z,99631.22
2023-03-31T00:04:28.515Z,99639.88
2023-03-31T00:07:31.065Z,99650.28
2023-03-31T00:10:35.036Z,99639.88
2023-03-31T00:13:38.113Z,99633.75
2023-03-31T00:16:41.192Z,99631.69
2023-03-31T00:19:43.745Z,99633.38
2023-03-31T00:22:46.856Z,99627.22
2023-03-31T00:25:49.324Z,99620.72
2023-03-31T00:28:53.011Z,99621.38
2023-03-31T00:31:56.139Z,99610.94
2023-03-31T00:34:58.968Z,99613.75
2023-03-31T00:38:01.529Z,99609.44
2023-03-31T00:41:04.699Z,99607.41
2023-03-31T00:44:23.059Z,99606.63
2023-03-31T00:47:27.160Z,99605.31
2023-03-31T00:50:33.289Z,99613.09
2023-03-31T00:53:37.105Z,99605.47
2023-03-31T00:56:42.337Z,99602.81
2023-03-31T00:59:53.836Z,99599.13
2023-03-31T01:02:59.013Z,99598.63
2023-03-31T01:06:06.498Z,99602.75
2023-03-31T01:09:10.010Z,99596.06
2023-03-31T01:12:14.160Z,99600.56
2023-03-31T01:15:16.808Z,99595.06
2023-03-31T01:18:21.795Z,99581.78
2023-03-31T01:21:30.637Z,99575.69
2023-03-31T01:24:38.014Z,99578.66
2023-03-31T01:28:02.697Z,99577.22
2023-03-31T01:31:31.824Z,99583.69
2023-03-31T01:34:59.173Z,99588.03
2023-03-31T01:38:02.277Z,99590.16
2023-03-31T01:41:11.628Z,99590.09
2023-03-31T01:44:43.699Z,99588.28
2023-03-31T01:48:04.440Z,99579.31
2023-03-31T01:51:13.611Z,99584.59
2023-03-31T01:54:23.160Z,99587.78
2023-03-31T01:57:37.669Z,99592.09
2023-03-31T02:01:03.664Z,99581.47
2023-03-31T02:04:17.503Z,99595.25
2023-03-31T02:07:34.571Z,99589.91
2023-03-31T02:10:39.528Z,99586.25
2023-03-31T02:13:46.951Z,99577.44
2023-03-31T02:16:54.061Z,99583.75
2023-03-31T02:20:06.334Z,99585.59
2023-03-31T02:23:10.808Z,99582.97
2023-03-31T02:26:16.382Z,99579.16
2023-03-31T02:29:19.665Z,99576.16
2023-03-31T02:32:35.264Z,99564.22
2023-03-31T02:35:37.913Z,99558.91
2023-03-31T02:38:45.398Z,99566.53
2023-03-31T02:41:47.845Z,99569.00
2023-03-31T02:44:50.733Z,99565.19
2023-03-31T02:47:54.131Z,99568.97
2023-03-31T02:51:12.387Z,99560.88
2023-03-31T02:54:58.318Z,99568.97
2023-03-31T02:58:12.507Z,99567.31
2023-03-31T03:01:33.102Z,99568.31
2023-03-31T03:05:02.269Z,99570.09
2023-03-31T03:08:17.931Z,99558.13
2023-03-31T03:11:56.739Z,99556.06
2023-03-31T03:15:13.915Z,99557.16
2023-03-31T03:18:16.950Z,99554.53
2023-03-31T03:21:19.503Z,99551.94
2023-03-31T03:24:23.004Z,99553.56
2023-03-31T03:27:25.497Z,99558.81
2023-03-31T03:30:28.523Z,99551.03
2023-03-31T03:33:31.062Z,99542.88
2023-03-31T03:36:33.945Z,99551.44
2023-03-31T03:39:36.457Z,99550.22
2023-03-31T03:42:39.228Z,99557.16
2023-03-31T03:45:41.726Z,99555.91
2023-03-31T03:48:44.611Z,99562.50
2023-03-31T03:51:47.273Z,99562.66
2023-03-31T03:54:50.287Z,99566.91
2023-03-31T03:57:52.812Z,99564.56
2023-03-31T04:00:57.075Z,99571.97
2023-03-31T04:04:00.108Z,99565.47
2023-03-31T04:07:02.626Z,99565.81
2023-03-31T04:10:06.128Z,99569.31
2023-03-31T04:13:08.706Z,99572.22
2023-03-31T04:16:12.035Z,99566.25
2023-03-31T04:19:17.745Z,99559.44
2023-03-31T04:22:20.883Z,99554.28
2023-03-31T04:25:23.762Z,99555.59
2023-03-31T04:28:34.998Z,99551.66
2023-03-31T04:31:42.814Z,99545.53
2023-03-31T04:34:46.578Z,99545.59
2023-03-31T04:37:50.176Z,99552.19
2023-03-31T04:40:53.481Z,99552.88
2023-03-31T04:43:56.095Z,99551.81
2023-03-31T04:47:02.898Z,99546.81
2023-03-31T04:50:06.515Z,99542.25
2023-03-31T04:53:09.492Z,99544.03
2023-03-31T04:56:12.355Z,99540.19
2023-03-31T04:59:15.178Z,99549.56
2023-03-31T05:02:25.190Z,99550.41
2023-03-31T05:05:28.591Z,99555.78
2023-03-31T05:08:31.424Z,99555.84
2023-03-31T05:11:34.390Z,99546.09
2023-03-31T05:14:36.901Z,99540.44
2023-03-31T05:17:40.043Z,99548.47
2023-03-31T05:20:42.994Z,99542.50
2023-03-31T05:23:46.601Z,99551.84
2023-03-31T05:26:52.825Z,99540.34
2023-03-31T05:29:56.010Z,99541.03
2023-03-31T05:32:58.646Z,99541.72
2023-03-31T05:36:01.554Z,99534.84
2023-03-31T05:39:08.076Z,99526.09
2023-03-31T05:42:11.037Z,99523.28
2023-03-31T05:45:13.801Z,99530.78
2023-03-31T05:48:16.837Z,99535.84
2023-03-31T05:51:19.360Z,99534.50
2023-03-31T05:54:22.754Z,99532.91
2023-03-31T05:57:25.527Z,99528.78
2023-03-31T06:00:28.661Z,99530.19
2023-03-31T06:03:33.248Z,99530.81
2023-03-31T06:06:38.171Z,99514.81
2023-03-31T06:09:41.212Z,99523.22
2023-03-31T06:12:43.729Z,99519.97
2023-03-31T06:15:57.124Z,99523.50
2023-03-31T06:18:59.734Z,99516.41
2023-03-31T06:22:02.659Z,99523.09
2023-03-31T06:25:05.776Z,99514.66
2023-03-31T06:28:08.749Z,99508.69
2023-03-31T06:31:14.072Z,99510.69
2023-03-31T06:34:18.484Z,99512.66
2023-03-31T06:37:22.667Z,99512.81
2023-03-31T06:40:25.659Z,99512.94
2023-03-31T06:43:28.489Z,99513.75
2023-03-31T06:46:31.449Z,99514.41
2023-03-31T06:49:34.401Z,99521.50
2023-03-31T06:52:37.383Z,99508.53
2023-03-31T06:55:40.288Z,99507.00
2023-03-31T06:58:43.156Z,99503.47
2023-03-31T07:01:46.095Z,99509.88
2023-03-31T07:04:48.963Z,99503.19
2023-03-31T07:07:51.485Z,99503.03
2023-03-31T07:10:57.970Z,99506.59
2023-03-31T07:14:00.571Z,99500.06
2023-03-31T07:17:03.783Z,99499.59
2023-03-31T07:20:12.629Z,99506.13
2023-03-31T07:23:15.857Z,99500.94
2023-03-31T07:26:18.635Z,99499.66
2023-03-31T07:29:21.513Z,99503.72
2023-03-31T07:32:28.933Z,99493.91
2023-03-31T07:35:32.100Z,99499.53
2023-03-31T07:38:34.760Z,99490.81
2023-03-31T07:41:37.812Z,99495.78
2023-03-31T07:44:40.615Z,99485.22
2023-03-31T07:47:44.831Z,99486.22
2023-03-31T07:50:48.521Z,99480.31
2023-03-31T07:53:52.772Z,99476.38
2023-03-31T07:56:55.488Z,99480.88
2023-03-31T07:59:58.355Z,99470.56
2023-03-31T08:03:01.151Z,99472.78
2023-03-31T08:06:04.197Z,99467.72
2023-03-31T08:09:09.565Z,99458.31
2023-03-31T08:12:13.078Z,99458.69
2023-03-31T08:15:16.495Z,99453.84
2023-03-31T08:18:20.098Z,99458.06
2023-03-31T08:21:24.603Z,99448.84
2023-03-31T08:24:27.635Z,99451.19
2023-03-31T08:27:33.592Z,99445.69
2023-03-31T08:30:42.708Z,99437.25
2023-03-31T08:33:46.686Z,99425.31
2023-03-31T08:36:49.540Z,99429.28
2023-03-31T08:39:52.361Z,99417.53
2023-03-31T08:43:23.395Z,99421.87
2023-03-31T08:46:27.804Z,99411.12
2023-03-31T08:49:41.714Z,99409.66
2023-03-31T08:52:51.010Z,99406.75
2023-03-31T08:55:55.508Z,99398.56
2023-03-31T08:59:02.206Z,99390.66
2023-03-31T09:02:57.657Z,99373.28
2023-03-31T09:06:23.672Z,99368.72
2023-03-31T09:09:48.885Z,99363.72
2023-03-31T09:12:58.088Z,99350.00
2023-03-31T09:16:17.007Z,99344.97
2023-03-31T09:19:38.308Z,99347.94
2023-03-31T09:22:48.236Z,99333.66
2023-03-31T09:25:51.432Z,99333.09
2023-03-31T09:28:57.535Z,99326.00
2023-03-31T09:32:03.094Z,99324.34
2023-03-31T09:35:21.625Z,99315.37
2023-03-31T09:38:24.379Z,99315.47
2023-03-31T09:41:27.709Z,99312.75
2023-03-31T09:44:40.033Z,99306.94
2023-03-31T09:47:45.383Z,99313.59
2023-03-31T09:50:55.071Z,99304.47
2023-03-31T09:54:22.044Z,99296.91
2023-03-31T09:57:33.756Z,99298.22
2023-03-31T10:00:41.446Z,99306.28
2023-03-31T10:03:49.570Z,99287.84
2023-03-31T10:06:53.591Z,99295.41
2023-03-31T10:09:57.394Z,99283.25
2023-03-31T10:13:01.719Z,99267.06
2023-03-31T10:16:08.978Z,99261.81
2023-03-31T10:19:13.447Z,99257.13
2023-03-31T10:22:27.713Z,99254.84
2023-03-31T10:25:30.926Z,99239.06
2023-03-31T10:28:35.680Z,99242.69
2023-03-31T10:31:38.941Z,99242.16
2023-03-31T10:34:42.713Z,99241.84
2023-03-31T10:37:45.428Z,99232.28
2023-03-31T10:40:54.528Z,99233.09
2023-03-31T10:44:02.349Z,99225.03
2023-03-31T10:47:16.407Z,99214.09
2023-03-31T10:50:18.917Z,99226.06
2023-03-31T10:53:22.172Z,99225.84
2023-03-31T10:56:42.544Z,99209.59
2023-03-31T11:00:09.041Z,99215.16
2023-03-31T11:03:33.139Z,99213.06
2023-03-31T11:07:19.502Z,99213.19
2023-03-31T11:10:41.831Z,99209.53
2023-03-31T11:14:03.175Z,99202.16
2023-03-31T11:17:27.102Z,99195.72
2023-03-31T11:20:54.093Z,99192.87
2023-03-31T11:24:18.364Z,99191.84
2023-03-31T11:27:21.228Z,99179.00
2023-03-31T11:30:56.897Z,99173.84
2023-03-31T11:34:18.370Z,99169.19
2023-03-31T11:37:41.703Z,99159.47
2023-03-31T11:40:50.464Z,99142.38
2023-03-31T11:44:03.896Z,99132.63
2023-03-31T11:47:09.837Z,99117.31
2023-03-31T11:50:38.596Z,99112.62
2023-03-31T11:53:43.334Z,99093.03
2023-03-31T11:56:46.388Z,99090.12
2023-03-31T11:59:56.108Z,99087.31
2023-03-31T12:03:10.463Z,99077.34
2023-03-31T12:06:19.977Z,99074.09
2023-03-31T12:09:33.144Z,99080.31
2023-03-31T12:12:41.982Z,99065.34
2023-03-31T12:15:47.921Z,99060.03
2023-03-31T12:18:56.913Z,99051.22
2023-03-31T12:22:24.305Z,99045.34
2023-03-31T12:25:34.596Z,99048.78
2023-03-31T12:28:38.297Z,99041.69
2023-03-31T12:31:44.615Z,99037.25
2023-03-31T12:35:10.447Z,99033.09
2023-03-31T12:38:25.793Z,99031.72
2023-03-31T12:41:52.845Z,99033.59
2023-03-31T12:45:20.618Z,99022.00
2023-03-31T12:48:42.192Z,99022.44
2023-03-31T12:52:04.213Z,99017.25
2023-03-31T12:55:33.495Z,99006.44
2023-03-31T12:58:42.238Z,98996.03
2023-03-31T13:02:09.974Z,98996.38
2023-03-31T13:05:38.237Z,98998.66
2023-03-31T13:08:50.068Z,98989.75
2023-03-31T13:11:53.186Z,98978.38
2023-03-31T13:15:01.684Z,98976.00
2023-03-31T13:18:06.642Z,98977.50
2023-03-31T13:21:09.413Z,98965.66
2023-03-31T13:24:14.542Z,98951.19
2023-03-31T13:27:35.700Z,98943.13
2023-03-31T13:30:38.731Z,98930.59
2023-03-31T13:33:45.812Z,98935.66
2023-03-31T13:36:56.270Z,98914.88
2023-03-31T13:40:09.239Z,98919.88
2023-03-31T13:43:23.773Z,98916.84
2023-03-31T13:46:58.588Z,98905.88
2023-03-31T13:50:16.363Z,98904.19
2023-03-31T13:53:45.347Z,98893.81
2023-03-31T13:57:31.822Z,98874.72
2023-03-31T14:01:07.624Z,98871.44
2023-03-31T14:04:34.943Z,98871.03
2023-03-31T14:07:50.939Z,98865.81
2023-03-31T14:10:54.062Z,98856.22
2023-03-31T14:14:06.788Z,98859.13
2023-03-31T14:17:11.442Z,98861.09
2023-03-31T14:20:21.074Z,98868.00
2023-03-31T14:23:35.646Z,98845.94
2023-03-31T14:26:42.317Z,98844.06
2023-03-31T14:29:51.586Z,98830.41
2023-03-31T14:33:15.325Z,98827.31
2023-03-31T14:36:38.190Z,98809.81
2023-03-31T14:39:44.658Z,98801.31
2023-03-31T14:42:50.273Z,98795.47
2023-03-31T14:46:04.779Z,98791.75
2023-03-31T14:49:16.440Z,98791.97
2023-03-31T14:52:21.443Z,98786.50
2023-03-31T14:55:35.611Z,98784.94
2023-03-31T14:58:50.042Z,98772.13
2023-03-31T15:01:53.099Z,98768.94
2023-03-31T15:04:56.661Z,98776.31
2023-03-31T15:08:02.771Z,98761.78
2023-03-31T15:11:12.917Z,98765.19
2023-03-31T15:14:16.970Z,98767.06
2023-03-31T15:17:26.566Z,98769.97
2023-03-31T15:20:32.097Z,98768.34
2023-03-31T15:23:40.679Z,98764.88
2023-03-31T15:27:01.023Z,98754.62
2023-03-31T15:30:08.467Z,98754.91
2023-03-31T15:33:19.823Z,98756.47
2023-03-31T15:36:22.790Z,98761.38
2023-03-31T15:39:27.381Z,98758.00
2023-03-31T15:42:29.910Z,98746.09
2023-03-31T15:45:39.118Z,98737.19
2023-03-31T15:48:55.545Z,98728.56
2023-03-31T15:52:00.621Z,98726.47
2023-03-31T15:55:23.051Z,98720.16
2023-03-31T15:58:56.469Z,98707.31
2023-03-31T16:02:01.276Z,98698.91
2023-03-31T16:05:10.425Z,98694.53
2023-03-31T16:08:22.548Z,98678.06
2023-03-31T16:11:35.985Z,98702.81
2023-03-31T16:14:47.734Z,98700.81
2023-03-31T16:17:53.142Z,98697.78
2023-03-31T16:21:00.046Z,98701.00
2023-03-31T16:24:04.449Z,98712.28
2023-03-31T16:27:09.340Z,98705.56
2023-03-31T16:30:32.838Z,98699.53
2023-03-31T16:33:56.681Z,98704.16
2023-03-31T16:36:59.859Z,98708.50
2023-03-31T16:40:02.603Z,98721.50
2023-03-31T16:43:28.887Z,98726.16
2023-03-31T16:46:31.458Z,98731.34
2023-03-31T16:49:34.776Z,98738.31
2023-03-31T16:52:37.428Z,98742.28
2023-03-31T16:55:41.091Z,98751.34
2023-03-31T16:58:43.952Z,98749.56
2023-03-31T17:01:47.040Z,98748.66
2023-03-31T17:04:50.773Z,98751.50
2023-03-31T17:07:55.154Z,98735.94
2023-03-31T17:11:10.957Z,98746.28
2023-03-31T17:14:14.049Z,98758.91
2023-03-31T17:17:18.006Z,98753.22
2023-03-31T17:20:21.440Z,98763.28
2023-03-31T17:23:24.034Z,98764.53
2023-03-31T17:26:27.198Z,98752.34
2023-03-31T17:29:29.981Z,98742.50
2023-03-31T17:32:33.216Z,98749.69
2023-03-31T17:35:35.939Z,98752.09
2023-03-31T17:38:39.992Z,98748.47
2023-03-31T17:41:43.075Z,98740.72
2023-03-31T17:44:47.886Z,98736.63
2023-03-31T17:47:51.748Z,98732.53
2023-03-31T17:50:56.106Z,98733.13
2023-03-31T17:54:01.476Z,98739.19
2023-03-31T17:57:07.355Z,98729.53
2023-03-31T18:00:11.318Z,98727.69
2023-03-31T18:03:14.374Z,98721.34
2023-03-31T18:06:19.668Z,98728.69
2023-03-31T18:09:23.061Z,98733.91
2023-03-31T18:12:26.268Z,98738.88
2023-03-31T18:15:29.379Z,98733.78
2023-03-31T18:18:32.749Z,98738.53
2023-03-31T18:21:38.592Z,98739.56
2023-03-31T18:24:41.578Z,98738.75
2023-03-31T18:27:47.346Z,98744.88
2023-03-31T18:30:50.350Z,98739.12
2023-03-31T18:33:54.810Z,98735.31
2023-03-31T18:36:58.063Z,98744.97
2023-03-31T18:40:01.704Z,98739.00
2023-03-31T18:43:06.094Z,98727.09
2023-03-31T18:46:10.723Z,98733.88
2023-03-31T18:49:14.646Z,98729.59
2023-03-31T18:52:17.885Z,98727.72
2023-03-31T18:55:21.077Z,98735.19
2023-03-31T18:58:26.064Z,98730.94
2023-03-31T19:01:29.442Z,98735.06
2023-03-31T19:04:33.102Z,98738.13
2023-03-31T19:07:36.402Z,98738.97
2023-03-31T19:10:39.812Z,98733.59
2023-03-31T19:13:44.002Z,98729.97
2023-03-31T19:16:47.298Z,98739.41
2023-03-31T19:19:50.312Z,98734.25
2023-03-31T19:22:53.729Z,98737.97
2023-03-31T19:25:58.165Z,98739.22
2023-03-31T19:29:03.170Z,98732.03
2023-03-31T19:32:06.390Z,98723.81
2023-03-31T19:35:11.369Z,98748.31
2023-03-31T19:38:15.294Z,98744.44
2023-03-31T19:41:18.732Z,98735.41
2023-03-31T19:44:21.640Z,98734.19
2023-03-31T19:47:25.868Z,98733.78
2023-03-31T19:50:28.904Z,98734.78
2023-03-31T19:53:32.962Z,98732.53
2023-03-31T19:56:35.819Z,98731.09
2023-03-31T19:59:39.393Z,98742.50
2023-03-31T20:02:42.730Z,98736.75
2023-03-31T20:05:46.200Z,98737.34
2023-03-31T20:08:55.659Z,98731.56
2023-03-31T20:11:58.771Z,98735.22
2023-03-31T20:15:01.859Z,98737.78
2023-03-31T20:18:05.735Z,98729.53
2023-03-31T20:21:14.679Z,98721.28
2023-03-31T20:24:18.903Z,98721.13
2023-03-31T20:27:26.253Z,98712.75
2023-03-31T20:30:29.489Z,98705.16
2023-03-31T20:33:32.710Z,98705.53
2023-03-31T20:36:35.625Z,98713.94
2023-03-31T20:39:38.553Z,98700.59
2023-03-31T20:42:41.821Z,98700.19
2023-03-31T20:45:44.359Z,98696.31
2023-03-31T20:48:49.553Z,98697.72
2023-03-31T20:51:52.042Z,98692.00
2023-03-31T20:54:54.929Z,98698.97
2023-03-31T20:57:58.305Z,98688.63
2023-03-31T21:01:01.296Z,98682.25
2023-03-31T21:04:05.764Z,98681.16
2023-03-31T21:07:08.557Z,98683.69
2023-03-31T21:10:12.045Z,98675.78
2023-03-31T21:13:16.443Z,98669.53
2023-03-31T21:16:19.829Z,98663.44
2023-03-31T21:19:23.122Z,98658.13
2023-03-31T21:22:27.449Z,98659.31
2023-03-31T21:25:32.555Z,98661.22
2023-03-31T21:28:36.905Z,98651.03
2023-03-31T21:31:41.602Z,98657.69
2023-03-31T21:34:44.181Z,98642.88
2023-03-31T21:37:47.551Z,98645.53
2023-03-31T21:40:55.545Z,98646.69
2023-03-31T21:44:00.908Z,98635.69
2023-03-31T21:47:05.167Z,98644.91
2023-03-31T21:50:08.553Z,98653.25
2023-03-31T21:53:11.066Z,98650.78
2023-03-31T21:56:14.129Z,98649.22
2023-03-31T21:59:16.940Z,98664.41
2023-03-31T22:02:19.995Z,98651.53
2023-03-31T22:05:23.143Z,98657.25
2023-03-31T22:08:29.610Z,98659.72
2023-03-31T22:11:32.514Z,98660.09
2023-03-31T22:14:37.768Z,98664.19
2023-03-31T22:17:40.710Z,98667.09
2023-03-31T22:20:44.353Z,98660.97
2023-03-31T22:23:48.351Z,98670.00
2023-03-31T22:26:50.939Z,98664.44
2023-03-31T22:29:53.790Z,98664.12
2023-03-31T22:32:56.723Z,98660.25
2023-03-31T22:35:59.753Z,98650.44
2023-03-31T22:39:02.375Z,98651.66
2023-03-31T22:42:05.252Z,98659.19
2023-03-31T22:45:08.284Z,98662.06
2023-03-31T22:48:11.140Z,98645.31
2023-03-31T22:51:14.485Z,98643.94
2023-03-31T22:54:17.474Z,98654.69
2023-03-31T22:57:19.982Z,98648.78
2023-03-31T23:00:22.961Z,98650.81
2023-03-31T23:03:26.277Z,98647.53
2023-03-31T23:06:29.374Z,98643.69
2023-03-31T23:09:32.240Z,98630.13
2023-03-31T23:12:35.330Z,98635.25
2023-03-31T23:15:38.026Z,98639.94
2023-03-31T23:18:44.446Z,98631.34
2023-03-31T23:21:47.677Z,98629.91
2023-03-31T23:24:52.633Z,98627.25
2023-03-31T23:27:55.131Z,98621.09
2023-03-31T23:30:58.100Z,98615.72
2023-03-31T23:34:01.288Z,98613.84
2023-03-31T23:37:11.293Z,98618.53
2023-03-31T23:40:13.899Z,98616.69
2023-03-31T23:43:16.753Z,98613.06
2023-03-31T23:46:19.658Z,98614.53
2023-03-31T23:49:22.641Z,98616.75
2023-03-31T23:52:25.360Z,98619.59
2023-03-31T23:55:29.198Z,98619.59
2023-03-31T23:58:32.452Z,98635.53
